sensor_id;sensor_type;location;lat;lon;timestamp;P1;durP1;ratioP1;P2;durP2;ratioP2
36551;SDS011;22559;54.176;12.102;2022-12-26T00:01:22;8.03;;;5.67;;
36551;SDS011;22559;54.176;12.102;2022-12-26T00:03:50;7.10;;;5.60;;
36551;SDS011;22559;54.176;12.102;2022-12-26T00:06:16;7.30;;;5.33;;
36551;SDS011;22559;54.176;12.102;2022-12-26T00:08:44;6.77;;;5.30;;
36551;SDS011;22559;54.176;12.102;2022-12-26T00:11:10;12.23;;;6.70;;
36551;SDS011;22559;54.176;12.102;2022-12-26T00:13:36;7.90;;;5.80;;
36551;SDS011;22559;54.176;12.102;2022-12-26T00:18:36;7.00;;;5.67;;
36551;SDS011;22559;54.176;12.102;2022-12-26T00:21:02;9.80;;;6.10;;
36551;SDS011;22559;54.176;12.102;2022-12-26T00:23:28;9.30;;;6.27;;
36551;SDS011;22559;54.176;12.102;2022-12-26T00:25:55;8.40;;;5.53;;
36551;SDS011;22559;54.176;12.102;2022-12-26T00:28:20;9.20;;;5.83;;
36551;SDS011;22559;54.176;12.102;2022-12-26T00:30:46;7.33;;;5.77;;
36551;SDS011;22559;54.176;12.102;2022-12-26T00:33:11;9.13;;;5.60;;
36551;SDS011;22559;54.176;12.102;2022-12-26T00:35:37;8.30;;;6.07;;
36551;SDS011;22559;54.176;12.102;2022-12-26T00:38:03;8.60;;;5.80;;
36551;SDS011;22559;54.176;12.102;2022-12-26T00:40:28;7.40;;;5.63;;
36551;SDS011;22559;54.176;12.102;2022-12-26T00:42:54;8.70;;;5.77;;
36551;SDS011;22559;54.176;12.102;2022-12-26T00:45:20;7.97;;;5.90;;
36551;SDS011;22559;54.176;12.102;2022-12-26T00:47:45;9.53;;;5.77;;
36551;SDS011;22559;54.176;12.102;2022-12-26T00:50:11;8.30;;;5.93;;
36551;SDS011;22559;54.176;12.102;2022-12-26T00:52:36;7.13;;;5.97;;
36551;SDS011;22559;54.176;12.102;2022-12-26T00:55:02;8.50;;;5.43;;
36551;SDS011;22559;54.176;12.102;2022-12-26T00:57:28;6.77;;;5.53;;
36551;SDS011;22559;54.176;12.102;2022-12-26T00:59:54;8.10;;;6.00;;
36551;SDS011;22559;54.176;12.102;2022-12-26T01:02:19;8.27;;;5.77;;
36551;SDS011;22559;54.176;12.102;2022-12-26T01:05:04;9.37;;;6.07;;
36551;SDS011;22559;54.176;12.102;2022-12-26T01:07:35;7.70;;;6.17;;
36551;SDS011;22559;54.176;12.102;2022-12-26T01:10:05;8.57;;;6.13;;
36551;SDS011;22559;54.176;12.102;2022-12-26T01:12:32;6.97;;;5.97;;
36551;SDS011;22559;54.176;12.102;2022-12-26T01:14:58;6.77;;;5.70;;
36551;SDS011;22559;54.176;12.102;2022-12-26T01:17:26;9.93;;;6.23;;
36551;SDS011;22559;54.176;12.102;2022-12-26T01:19:52;8.80;;;6.00;;
36551;SDS011;22559;54.176;12.102;2022-12-26T01:22:19;8.70;;;6.27;;
36551;SDS011;22559;54.176;12.102;2022-12-26T01:24:45;9.97;;;6.77;;
36551;SDS011;22559;54.176;12.102;2022-12-26T01:27:11;11.23;;;7.70;;
36551;SDS011;22559;54.176;12.102;2022-12-26T01:29:36;11.77;;;6.97;;
36551;SDS011;22559;54.176;12.102;2022-12-26T01:32:02;13.27;;;7.50;;
36551;SDS011;22559;54.176;12.102;2022-12-26T01:34:28;13.73;;;7.10;;
36551;SDS011;22559;54.176;12.102;2022-12-26T01:36:54;14.13;;;7.37;;
36551;SDS011;22559;54.176;12.102;2022-12-26T01:39:20;12.17;;;7.23;;
36551;SDS011;22559;54.176;12.102;2022-12-26T01:41:46;14.20;;;7.70;;
36551;SDS011;22559;54.176;12.102;2022-12-26T01:50:06;16.97;;;8.30;;
36551;SDS011;22559;54.176;12.102;2022-12-26T01:52:43;16.30;;;7.70;;
36551;SDS011;22559;54.176;12.102;2022-12-26T01:55:13;13.43;;;7.60;;
36551;SDS011;22559;54.176;12.102;2022-12-26T01:57:42;14.43;;;8.33;;
36551;SDS011;22559;54.176;12.102;2022-12-26T02:00:11;16.90;;;7.77;;
36551;SDS011;22559;54.176;12.102;2022-12-26T02:02:38;14.73;;;8.57;;
36551;SDS011;22559;54.176;12.102;2022-12-26T02:05:23;16.07;;;8.60;;
36551;SDS011;22559;54.176;12.102;2022-12-26T02:08:22;16.67;;;8.73;;
36551;SDS011;22559;54.176;12.102;2022-12-26T02:10:51;15.87;;;9.10;;
36551;SDS011;22559;54.176;12.102;2022-12-26T02:13:37;16.57;;;9.17;;
36551;SDS011;22559;54.176;12.102;2022-12-26T02:16:04;16.47;;;9.63;;
36551;SDS011;22559;54.176;12.102;2022-12-26T02:18:32;19.10;;;9.70;;
36551;SDS011;22559;54.176;12.102;2022-12-26T02:50:56;20.10;;;9.20;;
36551;SDS011;22559;54.176;12.102;2022-12-26T02:54:09;23.87;;;9.90;;
36551;SDS011;22559;54.176;12.102;2022-12-26T02:57:07;18.07;;;8.70;;
36551;SDS011;22559;54.176;12.102;2022-12-26T03:00:20;20.10;;;8.80;;
36551;SDS011;22559;54.176;12.102;2022-12-26T03:03:06;23.23;;;8.87;;
36551;SDS011;22559;54.176;12.102;2022-12-26T03:06:13;35.00;;;9.87;;
36551;SDS011;22559;54.176;12.102;2022-12-26T03:09:19;23.87;;;9.13;;
36551;SDS011;22559;54.176;12.102;2022-12-26T03:15:21;21.90;;;8.53;;
36551;SDS011;22559;54.176;12.102;2022-12-26T03:18:09;35.53;;;10.37;;
36551;SDS011;22559;54.176;12.102;2022-12-26T03:20:35;20.57;;;8.47;;
36551;SDS011;22559;54.176;12.102;2022-12-26T03:23:09;24.93;;;9.47;;
36551;SDS011;22559;54.176;12.102;2022-12-26T03:25:38;26.00;;;8.53;;
36551;SDS011;22559;54.176;12.102;2022-12-26T03:28:27;20.87;;;7.50;;
36551;SDS011;22559;54.176;12.102;2022-12-26T03:30:53;34.93;;;8.53;;
36551;SDS011;22559;54.176;12.102;2022-12-26T03:36:05;23.93;;;7.53;;
36551;SDS011;22559;54.176;12.102;2022-12-26T03:41:20;31.53;;;7.83;;
36551;SDS011;22559;54.176;12.102;2022-12-26T03:47:51;39.50;;;7.97;;
36551;SDS011;22559;54.176;12.102;2022-12-26T03:50:46;24.57;;;7.80;;
36551;SDS011;22559;54.176;12.102;2022-12-26T03:53:34;25.30;;;7.30;;
36551;SDS011;22559;54.176;12.102;2022-12-26T03:56:24;33.73;;;8.40;;
36551;SDS011;22559;54.176;12.102;2022-12-26T03:59:51;26.40;;;8.43;;
36551;SDS011;22559;54.176;12.102;2022-12-26T04:02:33;23.37;;;7.60;;
36551;SDS011;22559;54.176;12.102;2022-12-26T04:05:20;20.93;;;7.80;;
36551;SDS011;22559;54.176;12.102;2022-12-26T04:08:06;20.90;;;6.83;;
36551;SDS011;22559;54.176;12.102;2022-12-26T04:10:57;31.37;;;8.40;;
36551;SDS011;22559;54.176;12.102;2022-12-26T04:22:17;11.57;;;5.53;;
36551;SDS011;22559;54.176;12.102;2022-12-26T04:25:15;13.33;;;6.17;;
36551;SDS011;22559;54.176;12.102;2022-12-26T04:28:12;12.07;;;5.93;;
36551;SDS011;22559;54.176;12.102;2022-12-26T04:31:03;9.03;;;6.10;;
36551;SDS011;22559;54.176;12.102;2022-12-26T04:33:57;12.60;;;6.97;;
36551;SDS011;22559;54.176;12.102;2022-12-26T04:36:58;13.50;;;6.97;;
36551;SDS011;22559;54.176;12.102;2022-12-26T04:39:47;10.00;;;6.03;;
36551;SDS011;22559;54.176;12.102;2022-12-26T04:42:33;13.47;;;6.50;;
36551;SDS011;22559;54.176;12.102;2022-12-26T04:45:18;13.37;;;7.47;;
36551;SDS011;22559;54.176;12.102;2022-12-26T04:47:45;16.40;;;7.37;;
36551;SDS011;22559;54.176;12.102;2022-12-26T04:50:29;14.60;;;7.00;;
36551;SDS011;22559;54.176;12.102;2022-12-26T04:52:55;15.37;;;7.87;;
36551;SDS011;22559;54.176;12.102;2022-12-26T04:55:24;16.07;;;7.67;;
36551;SDS011;22559;54.176;12.102;2022-12-26T04:57:50;19.00;;;8.30;;
36551;SDS011;22559;54.176;12.102;2022-12-26T05:00:16;16.50;;;8.07;;
36551;SDS011;22559;54.176;12.102;2022-12-26T05:02:42;14.53;;;8.43;;
36551;SDS011;22559;54.176;12.102;2022-12-26T05:05:26;14.27;;;7.87;;
36551;SDS011;22559;54.176;12.102;2022-12-26T05:08:44;12.43;;;7.17;;
36551;SDS011;22559;54.176;12.102;2022-12-26T05:11:23;15.33;;;7.67;;
36551;SDS011;22559;54.176;12.102;2022-12-26T05:13:50;16.37;;;8.00;;
36551;SDS011;22559;54.176;12.102;2022-12-26T05:16:17;13.33;;;7.20;;
36551;SDS011;22559;54.176;12.102;2022-12-26T05:19:01;13.53;;;7.23;;
36551;SDS011;22559;54.176;12.102;2022-12-26T05:21:45;14.03;;;7.60;;
36551;SDS011;22559;54.176;12.102;2022-12-26T05:24:32;16.50;;;7.03;;
36551;SDS011;22559;54.176;12.102;2022-12-26T05:27:20;12.67;;;7.40;;
36551;SDS011;22559;54.176;12.102;2022-12-26T05:30:04;12.30;;;8.03;;
36551;SDS011;22559;54.176;12.102;2022-12-26T05:32:31;14.37;;;8.10;;
36551;SDS011;22559;54.176;12.102;2022-12-26T05:35:15;11.70;;;6.80;;
36551;SDS011;22559;54.176;12.102;2022-12-26T05:37:41;12.47;;;6.93;;
36551;SDS011;22559;54.176;12.102;2022-12-26T05:40:07;11.57;;;6.83;;
36551;SDS011;22559;54.176;12.102;2022-12-26T05:42:33;13.50;;;7.10;;
36551;SDS011;22559;54.176;12.102;2022-12-26T05:44:59;11.60;;;7.27;;
36551;SDS011;22559;54.176;12.102;2022-12-26T05:47:24;9.47;;;6.37;;
36551;SDS011;22559;54.176;12.102;2022-12-26T05:49:50;12.27;;;7.20;;
36551;SDS011;22559;54.176;12.102;2022-12-26T05:52:16;11.90;;;7.43;;
36551;SDS011;22559;54.176;12.102;2022-12-26T05:54:42;13.73;;;7.83;;
36551;SDS011;22559;54.176;12.102;2022-12-26T05:57:07;14.90;;;8.03;;
36551;SDS011;22559;54.176;12.102;2022-12-26T05:59:33;15.73;;;8.50;;
36551;SDS011;22559;54.176;12.102;2022-12-26T06:01:59;13.13;;;8.40;;
36551;SDS011;22559;54.176;12.102;2022-12-26T06:04:24;19.07;;;8.77;;
36551;SDS011;22559;54.176;12.102;2022-12-26T06:06:51;18.77;;;9.10;;
36551;SDS011;22559;54.176;12.102;2022-12-26T06:09:20;22.50;;;9.33;;
36551;SDS011;22559;54.176;12.102;2022-12-26T06:11:47;20.57;;;8.57;;
36551;SDS011;22559;54.176;12.102;2022-12-26T06:14:13;25.00;;;9.70;;
36551;SDS011;22559;54.176;12.102;2022-12-26T06:16:39;21.10;;;9.13;;
36551;SDS011;22559;54.176;12.102;2022-12-26T06:19:04;26.73;;;10.07;;
36551;SDS011;22559;54.176;12.102;2022-12-26T06:21:30;28.00;;;9.87;;
36551;SDS011;22559;54.176;12.102;2022-12-26T06:23:55;24.63;;;9.23;;
36551;SDS011;22559;54.176;12.102;2022-12-26T06:26:21;21.87;;;8.70;;
36551;SDS011;22559;54.176;12.102;2022-12-26T06:28:47;24.10;;;9.47;;
36551;SDS011;22559;54.176;12.102;2022-12-26T06:31:14;22.70;;;9.43;;
36551;SDS011;22559;54.176;12.102;2022-12-26T06:33:45;21.20;;;10.10;;
36551;SDS011;22559;54.176;12.102;2022-12-26T06:36:12;21.10;;;9.27;;
36551;SDS011;22559;54.176;12.102;2022-12-26T06:38:39;19.70;;;9.93;;
36551;SDS011;22559;54.176;12.102;2022-12-26T06:41:07;24.60;;;9.53;;
36551;SDS011;22559;54.176;12.102;2022-12-26T06:43:34;21.80;;;9.43;;
36551;SDS011;22559;54.176;12.102;2022-12-26T06:46:01;19.07;;;9.07;;
36551;SDS011;22559;54.176;12.102;2022-12-26T06:48:29;23.00;;;9.70;;
36551;SDS011;22559;54.176;12.102;2022-12-26T06:50:55;19.20;;;9.23;;
36551;SDS011;22559;54.176;12.102;2022-12-26T06:53:21;15.93;;;8.33;;
36551;SDS011;22559;54.176;12.102;2022-12-26T06:55:48;25.17;;;10.00;;
36551;SDS011;22559;54.176;12.102;2022-12-26T06:58:15;19.07;;;9.67;;
36551;SDS011;22559;54.176;12.102;2022-12-26T07:00:41;25.47;;;11.13;;
36551;SDS011;22559;54.176;12.102;2022-12-26T07:03:07;22.43;;;9.80;;
36551;SDS011;22559;54.176;12.102;2022-12-26T07:05:37;17.57;;;9.00;;
36551;SDS011;22559;54.176;12.102;2022-12-26T07:08:03;22.10;;;9.60;;
36551;SDS011;22559;54.176;12.102;2022-12-26T07:10:28;21.17;;;9.73;;
36551;SDS011;22559;54.176;12.102;2022-12-26T07:12:58;20.93;;;9.67;;
36551;SDS011;22559;54.176;12.102;2022-12-26T07:15:23;23.87;;;10.40;;
36551;SDS011;22559;54.176;12.102;2022-12-26T07:17:50;22.63;;;10.73;;
36551;SDS011;22559;54.176;12.102;2022-12-26T07:20:16;22.17;;;10.90;;
36551;SDS011;22559;54.176;12.102;2022-12-26T07:22:41;29.13;;;12.13;;
36551;SDS011;22559;54.176;12.102;2022-12-26T07:25:07;28.67;;;11.73;;
36551;SDS011;22559;54.176;12.102;2022-12-26T07:27:33;28.93;;;11.13;;
36551;SDS011;22559;54.176;12.102;2022-12-26T07:29:59;25.73;;;11.50;;
36551;SDS011;22559;54.176;12.102;2022-12-26T07:32:25;27.43;;;11.80;;
36551;SDS011;22559;54.176;12.102;2022-12-26T07:34:51;30.17;;;11.73;;
36551;SDS011;22559;54.176;12.102;2022-12-26T07:37:17;26.90;;;10.93;;
36551;SDS011;22559;54.176;12.102;2022-12-26T07:39:42;27.70;;;10.80;;
36551;SDS011;22559;54.176;12.102;2022-12-26T07:42:08;23.00;;;10.63;;
36551;SDS011;22559;54.176;12.102;2022-12-26T07:44:34;27.97;;;11.03;;
36551;SDS011;22559;54.176;12.102;2022-12-26T07:46:59;29.73;;;10.17;;
36551;SDS011;22559;54.176;12.102;2022-12-26T07:49:25;24.77;;;10.07;;
36551;SDS011;22559;54.176;12.102;2022-12-26T07:51:51;27.97;;;9.33;;
36551;SDS011;22559;54.176;12.102;2022-12-26T07:54:17;22.53;;;9.23;;
36551;SDS011;22559;54.176;12.102;2022-12-26T07:56:43;26.67;;;9.80;;
36551;SDS011;22559;54.176;12.102;2022-12-26T07:59:12;19.63;;;8.50;;
36551;SDS011;22559;54.176;12.102;2022-12-26T08:01:39;20.70;;;9.33;;
36551;SDS011;22559;54.176;12.102;2022-12-26T08:04:05;19.43;;;8.43;;
36551;SDS011;22559;54.176;12.102;2022-12-26T08:06:31;21.13;;;8.33;;
36551;SDS011;22559;54.176;12.102;2022-12-26T08:08:57;22.37;;;8.83;;
36551;SDS011;22559;54.176;12.102;2022-12-26T08:11:22;15.70;;;8.00;;
36551;SDS011;22559;54.176;12.102;2022-12-26T08:13:49;21.47;;;8.70;;
36551;SDS011;22559;54.176;12.102;2022-12-26T08:16:15;23.97;;;9.30;;
36551;SDS011;22559;54.176;12.102;2022-12-26T08:18:41;21.97;;;9.10;;
36551;SDS011;22559;54.176;12.102;2022-12-26T08:21:07;19.50;;;9.17;;
36551;SDS011;22559;54.176;12.102;2022-12-26T08:23:33;19.10;;;9.50;;
36551;SDS011;22559;54.176;12.102;2022-12-26T08:26:02;16.13;;;7.93;;
36551;SDS011;22559;54.176;12.102;2022-12-26T08:28:29;17.70;;;8.50;;
36551;SDS011;22559;54.176;12.102;2022-12-26T08:30:55;14.00;;;7.57;;
36551;SDS011;22559;54.176;12.102;2022-12-26T08:33:20;16.13;;;7.37;;
36551;SDS011;22559;54.176;12.102;2022-12-26T08:35:46;15.97;;;8.20;;
36551;SDS011;22559;54.176;12.102;2022-12-26T08:38:12;16.67;;;8.03;;
36551;SDS011;22559;54.176;12.102;2022-12-26T08:40:37;14.50;;;7.97;;
36551;SDS011;22559;54.176;12.102;2022-12-26T08:43:03;15.53;;;8.03;;
36551;SDS011;22559;54.176;12.102;2022-12-26T08:45:28;16.33;;;7.97;;
36551;SDS011;22559;54.176;12.102;2022-12-26T08:47:54;16.17;;;7.87;;
36551;SDS011;22559;54.176;12.102;2022-12-26T08:50:20;18.13;;;9.00;;
36551;SDS011;22559;54.176;12.102;2022-12-26T08:52:45;20.43;;;9.40;;
36551;SDS011;22559;54.176;12.102;2022-12-26T08:55:11;19.50;;;9.67;;
36551;SDS011;22559;54.176;12.102;2022-12-26T08:57:37;24.00;;;10.40;;
36551;SDS011;22559;54.176;12.102;2022-12-26T09:00:03;24.70;;;10.50;;
36551;SDS011;22559;54.176;12.102;2022-12-26T09:02:29;23.43;;;10.87;;
36551;SDS011;22559;54.176;12.102;2022-12-26T09:04:55;23.07;;;10.97;;
36551;SDS011;22559;54.176;12.102;2022-12-26T09:07:21;26.17;;;11.37;;
36551;SDS011;22559;54.176;12.102;2022-12-26T09:09:47;24.13;;;11.07;;
36551;SDS011;22559;54.176;12.102;2022-12-26T09:12:12;26.67;;;13.63;;
36551;SDS011;22559;54.176;12.102;2022-12-26T09:14:38;31.40;;;14.83;;
36551;SDS011;22559;54.176;12.102;2022-12-26T09:17:03;28.27;;;12.87;;
36551;SDS011;22559;54.176;12.102;2022-12-26T09:19:29;36.40;;;17.83;;
36551;SDS011;22559;54.176;12.102;2022-12-26T09:21:56;28.67;;;12.90;;
36551;SDS011;22559;54.176;12.102;2022-12-26T09:24:41;28.87;;;14.10;;
36551;SDS011;22559;54.176;12.102;2022-12-26T09:27:08;26.00;;;13.10;;
36551;SDS011;22559;54.176;12.102;2022-12-26T09:29:34;24.43;;;12.27;;
36551;SDS011;22559;54.176;12.102;2022-12-26T09:32:02;25.37;;;11.77;;
36551;SDS011;22559;54.176;12.102;2022-12-26T09:34:28;26.43;;;12.93;;
36551;SDS011;22559;54.176;12.102;2022-12-26T09:36:53;28.43;;;12.10;;
36551;SDS011;22559;54.176;12.102;2022-12-26T09:39:19;27.93;;;14.00;;
36551;SDS011;22559;54.176;12.102;2022-12-26T09:42:02;24.53;;;13.17;;
36551;SDS011;22559;54.176;12.102;2022-12-26T09:52:41;25.47;;;12.57;;
36551;SDS011;22559;54.176;12.102;2022-12-26T09:55:17;25.47;;;13.03;;
36551;SDS011;22559;54.176;12.102;2022-12-26T10:00:50;25.50;;;13.27;;
36551;SDS011;22559;54.176;12.102;2022-12-26T10:03:19;23.13;;;13.17;;
36551;SDS011;22559;54.176;12.102;2022-12-26T10:05:54;22.70;;;11.93;;
36551;SDS011;22559;54.176;12.102;2022-12-26T10:24:52;19.60;;;10.57;;
36551;SDS011;22559;54.176;12.102;2022-12-26T10:27:21;16.30;;;10.30;;
36551;SDS011;22559;54.176;12.102;2022-12-26T10:29:59;17.20;;;10.40;;
36551;SDS011;22559;54.176;12.102;2022-12-26T10:32:37;18.87;;;10.57;;
36551;SDS011;22559;54.176;12.102;2022-12-26T10:38:04;14.30;;;8.53;;
36551;SDS011;22559;54.176;12.102;2022-12-26T10:40:47;15.97;;;9.37;;
36551;SDS011;22559;54.176;12.102;2022-12-26T10:45:47;16.73;;;9.67;;
36551;SDS011;22559;54.176;12.102;2022-12-26T10:48:14;17.47;;;10.17;;
36551;SDS011;22559;54.176;12.102;2022-12-26T10:50:43;15.03;;;9.13;;
36551;SDS011;22559;54.176;12.102;2022-12-26T10:53:13;13.47;;;9.07;;
36551;SDS011;22559;54.176;12.102;2022-12-26T10:55:41;14.80;;;9.23;;
36551;SDS011;22559;54.176;12.102;2022-12-26T11:00:54;16.10;;;9.83;;
36551;SDS011;22559;54.176;12.102;2022-12-26T11:03:20;13.60;;;9.07;;
36551;SDS011;22559;54.176;12.102;2022-12-26T11:05:50;15.87;;;9.43;;
36551;SDS011;22559;54.176;12.102;2022-12-26T11:08:20;14.93;;;9.20;;
36551;SDS011;22559;54.176;12.102;2022-12-26T11:13:36;13.00;;;8.63;;
36551;SDS011;22559;54.176;12.102;2022-12-26T11:16:06;15.50;;;8.40;;
36551;SDS011;22559;54.176;12.102;2022-12-26T11:18:36;11.83;;;8.53;;
36551;SDS011;22559;54.176;12.102;2022-12-26T11:23:41;11.93;;;8.50;;
36551;SDS011;22559;54.176;12.102;2022-12-26T11:26:18;12.07;;;8.50;;
36551;SDS011;22559;54.176;12.102;2022-12-26T11:31:31;16.10;;;9.67;;
36551;SDS011;22559;54.176;12.102;2022-12-26T11:33:58;15.00;;;9.90;;
36551;SDS011;22559;54.176;12.102;2022-12-26T11:36:25;15.00;;;9.77;;
36551;SDS011;22559;54.176;12.102;2022-12-26T11:39:02;14.33;;;9.90;;
36551;SDS011;22559;54.176;12.102;2022-12-26T11:46:35;13.03;;;9.10;;
36551;SDS011;22559;54.176;12.102;2022-12-26T11:49:47;13.17;;;9.37;;
36551;SDS011;22559;54.176;12.102;2022-12-26T11:54:56;15.03;;;10.03;;
36551;SDS011;22559;54.176;12.102;2022-12-26T11:57:29;15.13;;;9.83;;
36551;SDS011;22559;54.176;12.102;2022-12-26T12:00:13;14.13;;;9.83;;
36551;SDS011;22559;54.176;12.102;2022-12-26T12:02:43;15.90;;;10.37;;
36551;SDS011;22559;54.176;12.102;2022-12-26T12:05:14;15.53;;;10.20;;
36551;SDS011;22559;54.176;12.102;2022-12-26T12:07:52;17.27;;;10.70;;
36551;SDS011;22559;54.176;12.102;2022-12-26T12:11:01;18.07;;;10.07;;
36551;SDS011;22559;54.176;12.102;2022-12-26T12:25:18;14.00;;;9.73;;
36551;SDS011;22559;54.176;12.102;2022-12-26T12:33:04;18.63;;;10.87;;
36551;SDS011;22559;54.176;12.102;2022-12-26T12:43:55;14.23;;;9.73;;
36551;SDS011;22559;54.176;12.102;2022-12-26T12:54:46;12.60;;;8.30;;
36551;SDS011;22559;54.176;12.102;2022-12-26T13:00:16;10.03;;;7.50;;
36551;SDS011;22559;54.176;12.102;2022-12-26T13:08:28;11.90;;;7.40;;
36551;SDS011;22559;54.176;12.102;2022-12-26T13:11:07;10.20;;;7.13;;
36551;SDS011;22559;54.176;12.102;2022-12-26T13:13:36;10.67;;;7.23;;
36551;SDS011;22559;54.176;12.102;2022-12-26T13:16:13;12.53;;;7.17;;
36551;SDS011;22559;54.176;12.102;2022-12-26T13:18:48;10.30;;;7.17;;
36551;SDS011;22559;54.176;12.102;2022-12-26T13:21:23;11.63;;;7.43;;
36551;SDS011;22559;54.176;12.102;2022-12-26T13:26:59;9.83;;;7.60;;
36551;SDS011;22559;54.176;12.102;2022-12-26T13:32:04;10.40;;;7.10;;
36551;SDS011;22559;54.176;12.102;2022-12-26T13:34:43;12.23;;;7.20;;
36551;SDS011;22559;54.176;12.102;2022-12-26T13:42:43;11.67;;;7.47;;
36551;SDS011;22559;54.176;12.102;2022-12-26T13:45:50;11.90;;;7.80;;
36551;SDS011;22559;54.176;12.102;2022-12-26T13:50:59;11.47;;;7.33;;
36551;SDS011;22559;54.176;12.102;2022-12-26T13:53:33;10.10;;;7.27;;
36551;SDS011;22559;54.176;12.102;2022-12-26T13:56:09;11.47;;;7.53;;
36551;SDS011;22559;54.176;12.102;2022-12-26T14:18:12;12.73;;;8.80;;
36551;SDS011;22559;54.176;12.102;2022-12-26T14:37:19;11.70;;;7.73;;
36551;SDS011;22559;54.176;12.102;2022-12-26T14:39:55;11.67;;;6.93;;
36551;SDS011;22559;54.176;12.102;2022-12-26T14:42:37;8.97;;;6.07;;
36551;SDS011;22559;54.176;12.102;2022-12-26T14:45:41;9.60;;;6.50;;
36551;SDS011;22559;54.176;12.102;2022-12-26T14:53:16;8.67;;;6.63;;
36551;SDS011;22559;54.176;12.102;2022-12-26T15:00:48;11.17;;;6.33;;
36551;SDS011;22559;54.176;12.102;2022-12-26T15:05:51;7.47;;;5.37;;
36551;SDS011;22559;54.176;12.102;2022-12-26T15:33:59;2.73;;;1.60;;
36551;SDS011;22559;54.176;12.102;2022-12-26T15:47:41;3.07;;;1.50;;
36551;SDS011;22559;54.176;12.102;2022-12-26T16:01:07;4.27;;;1.37;;
36551;SDS011;22559;54.176;12.102;2022-12-26T16:03:41;3.57;;;1.57;;
36551;SDS011;22559;54.176;12.102;2022-12-26T16:11:47;5.70;;;1.90;;
36551;SDS011;22559;54.176;12.102;2022-12-26T16:14:32;1.97;;;1.53;;
36551;SDS011;22559;54.176;12.102;2022-12-26T16:19:41;4.03;;;1.70;;
36551;SDS011;22559;54.176;12.102;2022-12-26T16:22:16;4.73;;;1.57;;
36551;SDS011;22559;54.176;12.102;2022-12-26T16:25:06;4.57;;;1.47;;
36551;SDS011;22559;54.176;12.102;2022-12-26T16:27:34;5.07;;;1.63;;
36551;SDS011;22559;54.176;12.102;2022-12-26T16:30:03;3.80;;;2.20;;
36551;SDS011;22559;54.176;12.102;2022-12-26T16:32:37;3.17;;;1.57;;
36551;SDS011;22559;54.176;12.102;2022-12-26T16:35:06;5.37;;;1.80;;
36551;SDS011;22559;54.176;12.102;2022-12-26T16:37:39;7.53;;;1.70;;
36551;SDS011;22559;54.176;12.102;2022-12-26T16:40:15;4.77;;;1.80;;
36551;SDS011;22559;54.176;12.102;2022-12-26T16:42:54;7.23;;;2.13;;
36551;SDS011;22559;54.176;12.102;2022-12-26T16:45:21;7.60;;;1.67;;
36551;SDS011;22559;54.176;12.102;2022-12-26T16:47:48;9.50;;;1.70;;
36551;SDS011;22559;54.176;12.102;2022-12-26T16:50:17;4.57;;;1.30;;
36551;SDS011;22559;54.176;12.102;2022-12-26T16:52:48;9.27;;;4.70;;
36551;SDS011;22559;54.176;12.102;2022-12-26T16:57:58;5.37;;;2.20;;
36551;SDS011;22559;54.176;12.102;2022-12-26T17:00:26;7.30;;;3.70;;
36551;SDS011;22559;54.176;12.102;2022-12-26T17:02:53;17.20;;;7.13;;
36551;SDS011;22559;54.176;12.102;2022-12-26T17:05:22;15.23;;;5.83;;
36551;SDS011;22559;54.176;12.102;2022-12-26T17:07:53;6.47;;;2.50;;
36551;SDS011;22559;54.176;12.102;2022-12-26T17:10:24;8.30;;;3.13;;
36551;SDS011;22559;54.176;12.102;2022-12-26T17:12:53;6.50;;;2.37;;
36551;SDS011;22559;54.176;12.102;2022-12-26T17:15:23;8.60;;;3.20;;
36551;SDS011;22559;54.176;12.102;2022-12-26T17:17:52;5.23;;;2.10;;
36551;SDS011;22559;54.176;12.102;2022-12-26T17:22:46;8.87;;;2.63;;
36551;SDS011;22559;54.176;12.102;2022-12-26T17:27:44;9.90;;;2.63;;
36551;SDS011;22559;54.176;12.102;2022-12-26T17:30:19;5.20;;;2.23;;
36551;SDS011;22559;54.176;12.102;2022-12-26T17:32:52;6.80;;;2.00;;
36551;SDS011;22559;54.176;12.102;2022-12-26T17:37:48;12.10;;;2.37;;
36551;SDS011;22559;54.176;12.102;2022-12-26T17:40:42;7.10;;;2.50;;
36551;SDS011;22559;54.176;12.102;2022-12-26T17:45:37;11.90;;;3.00;;
36551;SDS011;22559;54.176;12.102;2022-12-26T17:48:04;7.10;;;2.13;;
36551;SDS011;22559;54.176;12.102;2022-12-26T17:50:34;13.60;;;2.50;;
36551;SDS011;22559;54.176;12.102;2022-12-26T17:55:37;8.03;;;2.80;;
36551;SDS011;22559;54.176;12.102;2022-12-26T17:58:03;10.13;;;2.30;;
36551;SDS011;22559;54.176;12.102;2022-12-26T18:00:28;8.77;;;1.97;;
36551;SDS011;22559;54.176;12.102;2022-12-26T18:02:55;8.13;;;2.93;;
36551;SDS011;22559;54.176;12.102;2022-12-26T18:05:21;4.57;;;2.20;;
36551;SDS011;22559;54.176;12.102;2022-12-26T18:07:48;7.13;;;2.47;;
36551;SDS011;22559;54.176;12.102;2022-12-26T18:10:17;11.13;;;2.73;;
36551;SDS011;22559;54.176;12.102;2022-12-26T18:12:47;7.80;;;2.27;;
36551;SDS011;22559;54.176;12.102;2022-12-26T18:15:13;6.47;;;2.20;;
36551;SDS011;22559;54.176;12.102;2022-12-26T18:17:40;10.33;;;2.73;;
36551;SDS011;22559;54.176;12.102;2022-12-26T18:20:06;8.57;;;2.40;;
36551;SDS011;22559;54.176;12.102;2022-12-26T18:22:32;13.20;;;3.03;;
36551;SDS011;22559;54.176;12.102;2022-12-26T18:24:57;8.50;;;2.50;;
36551;SDS011;22559;54.176;12.102;2022-12-26T18:27:28;9.33;;;2.50;;
36551;SDS011;22559;54.176;12.102;2022-12-26T18:29:55;8.33;;;2.37;;
36551;SDS011;22559;54.176;12.102;2022-12-26T18:32:26;8.63;;;2.13;;
36551;SDS011;22559;54.176;12.102;2022-12-26T18:34:53;7.10;;;3.13;;
36551;SDS011;22559;54.176;12.102;2022-12-26T18:37:20;9.20;;;3.00;;
36551;SDS011;22559;54.176;12.102;2022-12-26T18:39:47;12.70;;;3.00;;
36551;SDS011;22559;54.176;12.102;2022-12-26T18:42:13;12.93;;;2.97;;
36551;SDS011;22559;54.176;12.102;2022-12-26T18:44:40;6.67;;;2.10;;
36551;SDS011;22559;54.176;12.102;2022-12-26T18:47:14;13.77;;;2.73;;
36551;SDS011;22559;54.176;12.102;2022-12-26T18:49:41;9.97;;;2.57;;
36551;SDS011;22559;54.176;12.102;2022-12-26T18:52:06;7.60;;;2.83;;
36551;SDS011;22559;54.176;12.102;2022-12-26T18:54:33;9.17;;;3.00;;
36551;SDS011;22559;54.176;12.102;2022-12-26T18:57:00;12.17;;;3.23;;
36551;SDS011;22559;54.176;12.102;2022-12-26T18:59:26;8.17;;;4.00;;
36551;SDS011;22559;54.176;12.102;2022-12-26T19:01:52;12.53;;;2.73;;
36551;SDS011;22559;54.176;12.102;2022-12-26T19:04:18;8.70;;;2.30;;
36551;SDS011;22559;54.176;12.102;2022-12-26T19:06:44;6.67;;;2.33;;
36551;SDS011;22559;54.176;12.102;2022-12-26T19:09:10;9.77;;;2.67;;
36551;SDS011;22559;54.176;12.102;2022-12-26T19:11:37;11.73;;;2.93;;
36551;SDS011;22559;54.176;12.102;2022-12-26T19:14:03;12.50;;;2.63;;
36551;SDS011;22559;54.176;12.102;2022-12-26T19:16:38;12.87;;;2.83;;
36551;SDS011;22559;54.176;12.102;2022-12-26T19:19:04;13.47;;;3.50;;
36551;SDS011;22559;54.176;12.102;2022-12-26T19:21:29;14.63;;;2.53;;
36551;SDS011;22559;54.176;12.102;2022-12-26T19:23:55;11.93;;;2.97;;
36551;SDS011;22559;54.176;12.102;2022-12-26T19:26:20;8.13;;;2.63;;
36551;SDS011;22559;54.176;12.102;2022-12-26T19:28:50;9.80;;;2.60;;
36551;SDS011;22559;54.176;12.102;2022-12-26T19:31:16;9.57;;;3.03;;
36551;SDS011;22559;54.176;12.102;2022-12-26T19:33:43;9.23;;;2.60;;
36551;SDS011;22559;54.176;12.102;2022-12-26T19:36:08;7.93;;;2.60;;